Weather at Wolf River Ranch Airport [CLOSED]

Public forecast

Using degrees Fahrenheit for public forecast. Weather courtesy of forecast.io.

Closest aviation weather report (METAR) to Wolf River Ranch Airport

Closest report is George R Carr Memorial Air Field, 22.5 nm (41.7 km) WSW. Retrieved 2021/05/16 21:15 UTC (12 seconds ago):

KBXA 162115Z AUTO 15008KT 10SM CLR 29/17 A3009 RMK AO2 T02860165

Closest aviation forecast (TAF) to Wolf River Ranch Airport

Closest forecast is Hattiesburg Bobby L Chain Municipal Airport, 23.1 nm (42.8 km) NNE. Retrieved 2021/05/16 18:28 UTC (3 hours ago):

TAF KHBG 161726Z 1618/1718 16010G16KT P6SM SCT060 FM170000 15008KT P6SM BKN250 FM171300 15006KT P6SM OVC015